sensor_id;sensor_type;location;lat;lon;timestamp;P1;durP1;ratioP1;P2;durP2;ratioP2
30466;SDS011;17258;52.560;13.046;2024-02-23T00:05:51;0.40;;;0.40;;
30466;SDS011;17258;52.560;13.046;2024-02-23T00:15:52;0.50;;;0.50;;
30466;SDS011;17258;52.560;13.046;2024-02-23T00:25:53;0.60;;;0.60;;
30466;SDS011;17258;52.560;13.046;2024-02-23T00:35:53;0.75;;;0.70;;
30466;SDS011;17258;52.560;13.046;2024-02-23T00:45:54;0.57;;;0.57;;
30466;SDS011;17258;52.560;13.046;2024-02-23T00:55:55;0.60;;;0.60;;
30466;SDS011;17258;52.560;13.046;2024-02-23T01:05:55;0.83;;;0.80;;
30466;SDS011;17258;52.560;13.046;2024-02-23T01:15:56;1.65;;;0.68;;
30466;SDS011;17258;52.560;13.046;2024-02-23T01:25:57;0.70;;;0.70;;
30466;SDS011;17258;52.560;13.046;2024-02-23T01:35:59;0.70;;;0.70;;
30466;SDS011;17258;52.560;13.046;2024-02-23T01:46:00;1.00;;;0.90;;
30466;SDS011;17258;52.560;13.046;2024-02-23T01:56:00;0.60;;;0.60;;
30466;SDS011;17258;52.560;13.046;2024-02-23T02:06:01;0.60;;;0.60;;
30466;SDS011;17258;52.560;13.046;2024-02-23T02:16:02;0.75;;;0.75;;
30466;SDS011;17258;52.560;13.046;2024-02-23T02:26:03;0.70;;;0.70;;
30466;SDS011;17258;52.560;13.046;2024-02-23T02:36:04;0.50;;;0.50;;
30466;SDS011;17258;52.560;13.046;2024-02-23T02:46:05;0.50;;;0.45;;
30466;SDS011;17258;52.560;13.046;2024-02-23T02:56:06;1.30;;;0.68;;
30466;SDS011;17258;52.560;13.046;2024-02-23T03:06:07;1.38;;;0.70;;
30466;SDS011;17258;52.560;13.046;2024-02-23T03:16:14;0.55;;;0.40;;
30466;SDS011;17258;52.560;13.046;2024-02-23T03:26:18;0.40;;;0.40;;
30466;SDS011;17258;52.560;13.046;2024-02-23T03:36:19;0.50;;;0.50;;
30466;SDS011;17258;52.560;13.046;2024-02-23T03:46:19;1.60;;;0.60;;
30466;SDS011;17258;52.560;13.046;2024-02-23T03:56:21;0.57;;;0.57;;
30466;SDS011;17258;52.560;13.046;2024-02-23T04:06:22;0.90;;;0.70;;
30466;SDS011;17258;52.560;13.046;2024-02-23T04:16:23;2.87;;;0.97;;
30466;SDS011;17258;52.560;13.046;2024-02-23T04:26:27;0.70;;;0.70;;
30466;SDS011;17258;52.560;13.046;2024-02-23T04:36:28;1.23;;;0.83;;
30466;SDS011;17258;52.560;13.046;2024-02-23T04:46:30;0.50;;;0.50;;
30466;SDS011;17258;52.560;13.046;2024-02-23T04:56:31;0.40;;;0.40;;
30466;SDS011;17258;52.560;13.046;2024-02-23T05:06:33;0.40;;;0.40;;
30466;SDS011;17258;52.560;13.046;2024-02-23T05:16:34;0.47;;;0.47;;
30466;SDS011;17258;52.560;13.046;2024-02-23T05:26:34;1.30;;;0.50;;
30466;SDS011;17258;52.560;13.046;2024-02-23T05:36:35;0.50;;;0.50;;
30466;SDS011;17258;52.560;13.046;2024-02-23T05:46:35;0.40;;;0.40;;
30466;SDS011;17258;52.560;13.046;2024-02-23T05:56:37;0.63;;;0.52;;
30466;SDS011;17258;52.560;13.046;2024-02-23T06:06:40;0.40;;;0.40;;
30466;SDS011;17258;52.560;13.046;2024-02-23T06:16:44;0.50;;;0.50;;
30466;SDS011;17258;52.560;13.046;2024-02-23T06:26:44;0.70;;;0.50;;
30466;SDS011;17258;52.560;13.046;2024-02-23T06:36:46;0.68;;;0.50;;
30466;SDS011;17258;52.560;13.046;2024-02-23T06:46:46;1.40;;;1.40;;
30466;SDS011;17258;52.560;13.046;2024-02-23T06:56:47;9.70;;;9.30;;
30466;SDS011;17258;52.560;13.046;2024-02-23T07:06:48;11.57;;;10.97;;
30466;SDS011;17258;52.560;13.046;2024-02-23T07:16:48;12.60;;;11.90;;
30466;SDS011;17258;52.560;13.046;2024-02-23T07:26:49;15.53;;;14.57;;
30466;SDS011;17258;52.560;13.046;2024-02-23T07:36:53;17.40;;;16.30;;
30466;SDS011;17258;52.560;13.046;2024-02-23T07:46:54;19.38;;;17.98;;
30466;SDS011;17258;52.560;13.046;2024-02-23T07:56:55;19.25;;;17.95;;
30466;SDS011;17258;52.560;13.046;2024-02-23T08:06:57;19.08;;;17.77;;
30466;SDS011;17258;52.560;13.046;2024-02-23T08:16:58;19.38;;;17.98;;
30466;SDS011;17258;52.560;13.046;2024-02-23T08:26:59;19.27;;;17.98;;
30466;SDS011;17258;52.560;13.046;2024-02-23T08:37:00;19.27;;;17.98;;
30466;SDS011;17258;52.560;13.046;2024-02-23T08:47:01;18.75;;;17.45;;
30466;SDS011;17258;52.560;13.046;2024-02-23T08:57:02;18.73;;;17.52;;
30466;SDS011;17258;52.560;13.046;2024-02-23T09:07:03;18.58;;;17.38;;
30466;SDS011;17258;52.560;13.046;2024-02-23T09:17:05;18.13;;;16.92;;
30466;SDS011;17258;52.560;13.046;2024-02-23T09:27:08;19.02;;;17.73;;
30466;SDS011;17258;52.560;13.046;2024-02-23T09:37:09;19.33;;;18.02;;
30466;SDS011;17258;52.560;13.046;2024-02-23T09:47:10;19.02;;;17.73;;
30466;SDS011;17258;52.560;13.046;2024-02-23T09:57:11;19.38;;;17.98;;
30466;SDS011;17258;52.560;13.046;2024-02-23T10:07:14;19.02;;;17.73;;
30466;SDS011;17258;52.560;13.046;2024-02-23T10:17:18;19.30;;;18.00;;
30466;SDS011;17258;52.560;13.046;2024-02-23T10:27:20;19.33;;;18.00;;
30466;SDS011;17258;52.560;13.046;2024-02-23T10:37:22;18.80;;;17.50;;
30466;SDS011;17258;52.560;13.046;2024-02-23T10:47:24;19.30;;;18.00;;
30466;SDS011;17258;52.560;13.046;2024-02-23T10:57:25;19.65;;;18.15;;
30466;SDS011;17258;52.560;13.046;2024-02-23T11:07:29;19.90;;;18.50;;
30466;SDS011;17258;52.560;13.046;2024-02-23T11:17:30;19.40;;;17.98;;
30466;SDS011;17258;52.560;13.046;2024-02-23T11:27:36;19.83;;;18.42;;
30466;SDS011;17258;52.560;13.046;2024-02-23T11:37:54;18.85;;;17.55;;
30466;SDS011;17258;52.560;13.046;2024-02-23T11:47:59;19.00;;;17.70;;
30466;SDS011;17258;52.560;13.046;2024-02-23T11:57:59;19.40;;;18.10;;
30466;SDS011;17258;52.560;13.046;2024-02-23T12:08:01;19.85;;;18.25;;
30466;SDS011;17258;52.560;13.046;2024-02-23T12:18:03;19.92;;;18.42;;
30466;SDS011;17258;52.560;13.046;2024-02-23T12:28:04;19.35;;;18.05;;
30466;SDS011;17258;52.560;13.046;2024-02-23T12:38:05;19.35;;;18.05;;
30466;SDS011;17258;52.560;13.046;2024-02-23T12:48:06;20.10;;;18.70;;
30466;SDS011;17258;52.560;13.046;2024-02-23T12:58:07;19.95;;;18.55;;
30466;SDS011;17258;52.560;13.046;2024-02-23T13:08:08;20.23;;;18.73;;
30466;SDS011;17258;52.560;13.046;2024-02-23T13:18:08;20.37;;;18.97;;
30466;SDS011;17258;52.560;13.046;2024-02-23T13:28:09;20.50;;;18.80;;
30466;SDS011;17258;52.560;13.046;2024-02-23T13:38:10;20.27;;;18.45;;
30466;SDS011;17258;52.560;13.046;2024-02-23T13:48:11;20.37;;;18.80;;
30466;SDS011;17258;52.560;13.046;2024-02-23T13:58:12;19.80;;;18.40;;
30466;SDS011;17258;52.560;13.046;2024-02-23T14:08:13;19.63;;;18.23;;
30466;SDS011;17258;52.560;13.046;2024-02-23T14:18:13;20.20;;;18.70;;
30466;SDS011;17258;52.560;13.046;2024-02-23T14:28:14;20.20;;;18.70;;
30466;SDS011;17258;52.560;13.046;2024-02-23T14:38:15;20.43;;;18.60;;
30466;SDS011;17258;52.560;13.046;2024-02-23T14:48:16;20.42;;;18.92;;
30466;SDS011;17258;52.560;13.046;2024-02-23T14:58:17;20.67;;;18.73;;
30466;SDS011;17258;52.560;13.046;2024-02-23T15:08:18;14.03;;;13.23;;
30466;SDS011;17258;52.560;13.046;2024-02-23T15:18:20;4.60;;;4.40;;
30466;SDS011;17258;52.560;13.046;2024-02-23T15:28:21;2.40;;;2.30;;
30466;SDS011;17258;52.560;13.046;2024-02-23T15:38:23;4.22;;;3.92;;
30466;SDS011;17258;52.560;13.046;2024-02-23T15:48:24;0.97;;;0.97;;
30466;SDS011;17258;52.560;13.046;2024-02-23T15:58:26;0.68;;;0.68;;
30466;SDS011;17258;52.560;13.046;2024-02-23T16:08:40;0.73;;;0.70;;
30466;SDS011;17258;52.560;13.046;2024-02-23T16:18:43;5.15;;;0.90;;
30466;SDS011;17258;52.560;13.046;2024-02-23T16:28:43;0.65;;;0.65;;
30466;SDS011;17258;52.560;13.046;2024-02-23T16:38:44;2.40;;;0.70;;
30466;SDS011;17258;52.560;13.046;2024-02-23T16:48:45;1.57;;;0.83;;
30466;SDS011;17258;52.560;13.046;2024-02-23T16:58:45;1.90;;;0.77;;
30466;SDS011;17258;52.560;13.046;2024-02-23T17:08:46;0.93;;;0.90;;
30466;SDS011;17258;52.560;13.046;2024-02-23T17:18:48;0.90;;;0.90;;
30466;SDS011;17258;52.560;13.046;2024-02-23T17:28:48;1.23;;;1.13;;
30466;SDS011;17258;52.560;13.046;2024-02-23T17:38:49;1.00;;;1.00;;
30466;SDS011;17258;52.560;13.046;2024-02-23T17:48:50;1.30;;;1.17;;
30466;SDS011;17258;52.560;13.046;2024-02-23T17:58:53;1.98;;;1.67;;
30466;SDS011;17258;52.560;13.046;2024-02-23T18:08:54;3.85;;;1.85;;
30466;SDS011;17258;52.560;13.046;2024-02-23T18:18:55;1.83;;;1.45;;
30466;SDS011;17258;52.560;13.046;2024-02-23T18:28:58;2.22;;;1.63;;
30466;SDS011;17258;52.560;13.046;2024-02-23T18:38:59;2.50;;;1.65;;
30466;SDS011;17258;52.560;13.046;2024-02-23T18:49:00;1.50;;;1.40;;
30466;SDS011;17258;52.560;13.046;2024-02-23T18:59:00;1.60;;;1.50;;
30466;SDS011;17258;52.560;13.046;2024-02-23T19:09:01;2.37;;;1.80;;
30466;SDS011;17258;52.560;13.046;2024-02-23T19:19:04;1.70;;;1.60;;
30466;SDS011;17258;52.560;13.046;2024-02-23T19:29:06;2.95;;;2.65;;
30466;SDS011;17258;52.560;13.046;2024-02-23T19:39:08;8.90;;;3.95;;
30466;SDS011;17258;52.560;13.046;2024-02-23T19:49:09;3.53;;;2.63;;
30466;SDS011;17258;52.560;13.046;2024-02-23T19:59:10;3.87;;;2.70;;
30466;SDS011;17258;52.560;13.046;2024-02-23T20:09:11;1.53;;;1.43;;
30466;SDS011;17258;52.560;13.046;2024-02-23T20:19:12;1.67;;;1.45;;
30466;SDS011;17258;52.560;13.046;2024-02-23T20:29:14;2.83;;;1.55;;
30466;SDS011;17258;52.560;13.046;2024-02-23T20:39:15;1.27;;;1.17;;
30466;SDS011;17258;52.560;13.046;2024-02-23T20:49:15;1.10;;;1.00;;
30466;SDS011;17258;52.560;13.046;2024-02-23T20:59:16;1.42;;;0.90;;
30466;SDS011;17258;52.560;13.046;2024-02-23T21:09:17;1.45;;;1.00;;
30466;SDS011;17258;52.560;13.046;2024-02-23T21:19:17;1.53;;;0.90;;
30466;SDS011;17258;52.560;13.046;2024-02-23T21:29:18;2.90;;;1.30;;
30466;SDS011;17258;52.560;13.046;2024-02-23T21:39:19;1.27;;;1.17;;
30466;SDS011;17258;52.560;13.046;2024-02-23T21:49:20;1.80;;;1.70;;
30466;SDS011;17258;52.560;13.046;2024-02-23T21:59:20;2.60;;;2.23;;
30466;SDS011;17258;52.560;13.046;2024-02-23T22:09:21;1.50;;;1.40;;
30466;SDS011;17258;52.560;13.046;2024-02-23T22:19:22;1.70;;;1.60;;
30466;SDS011;17258;52.560;13.046;2024-02-23T22:29:22;2.80;;;1.70;;
30466;SDS011;17258;52.560;13.046;2024-02-23T22:39:23;2.00;;;1.52;;
30466;SDS011;17258;52.560;13.046;2024-02-23T22:49:23;1.60;;;1.50;;
30466;SDS011;17258;52.560;13.046;2024-02-23T22:59:24;2.38;;;1.50;;
30466;SDS011;17258;52.560;13.046;2024-02-23T23:09:25;1.53;;;1.43;;
30466;SDS011;17258;52.560;13.046;2024-02-23T23:19:26;1.38;;;1.27;;
30466;SDS011;17258;52.560;13.046;2024-02-23T23:29:26;2.28;;;1.45;;
30466;SDS011;17258;52.560;13.046;2024-02-23T23:39:27;2.60;;;1.43;;
30466;SDS011;17258;52.560;13.046;2024-02-23T23:49:28;2.35;;;1.75;;
30466;SDS011;17258;52.560;13.046;2024-02-23T23:59:28;3.97;;;2.00;;
